Time;durP1;ratioP1;P1;durP2;ratioP2;P2;SDS_P1;SDS_P2;PMS_P1;PMS_P2;Temp;Humidity;BMP_temperature;BMP_pressure;BME280_temperature;BME280_humidity;BME280_pressure;Samples;Min_cycle;Max_cycle;Signal;HPM_P1;HPM_P2
2022/12/17 13:08:21;;;;;;;9.10;2.95;;;22.40;99.90;;;;;;5013526;28;20038;-52
2022/12/17 13:10:48;;;;;;;9.13;2.30;;;22.40;99.90;;;;;;5013186;28;20128;-51
2022/12/17 13:13:31;;;;;;;8.45;2.40;;;22.40;99.90;;;;;;5013481;28;20033;-51
2022/12/17 13:16:18;;;;;;;24.73;2.97;;;22.50;99.90;;;;;;5013202;28;20018;-51
2022/12/17 13:18:44;;;;;;;9.13;3.03;;;22.50;99.90;;;;;;4998455;28;20018;-51
2022/12/17 13:21:15;;;;;;;9.18;3.67;;;22.60;99.90;;;;;;5015189;28;20022;-51
2022/12/17 13:23:42;;;;;;;11.88;3.13;;;22.60;99.90;;;;;;5028896;28;20132;-52
2022/12/17 13:26:23;;;;;;;9.47;3.93;;;22.60;99.90;;;;;;5031674;28;20048;-50
2022/12/17 13:29:00;;;;;;;10.38;6.10;;;22.60;99.90;;;;;;5031223;28;20273;-52
2022/12/17 13:31:40;;;;;;;9.90;5.00;;;22.60;99.90;;;;;;5026807;28;20104;-51
2022/12/17 13:34:16;;;;;;;12.35;5.30;;;22.70;99.90;;;;;;5031894;28;20033;-51
2022/12/17 13:37:09;;;;;;;13.68;6.45;;;22.70;99.90;;;;;;5031968;28;20018;-52
2022/12/17 13:39:51;;;;;;;11.88;6.68;;;22.70;99.90;;;;;;5013474;28;20036;-51
2022/12/17 13:42:30;;;;;;;18.60;6.95;;;22.70;99.90;;;;;;5032067;28;20029;-51
2022/12/17 13:44:57;;;;;;;14.20;6.90;;;22.80;99.90;;;;;;5032052;28;20101;-51
2022/12/17 13:47:30;;;;;;;13.68;6.40;;;22.70;99.90;;;;;;5031632;28;20030;-52
2022/12/17 13:49:58;;;;;;;12.20;6.80;;;22.80;99.90;;;;;;5031626;28;20025;-52
2022/12/17 13:52:26;;;;;;;19.50;10.52;;;22.80;99.90;;;;;;5031977;28;20029;-51
2022/12/17 13:54:53;;;;;;;12.52;7.35;;;22.80;99.90;;;;;;5031770;28;20475;-51
2022/12/17 13:57:22;;;;;;;17.02;7.95;;;22.70;99.90;;;;;;5031628;28;20018;-51
2022/12/17 13:59:53;;;;;;;24.13;15.30;;;22.70;99.90;;;;;;5030974;28;20021;-51
2022/12/17 14:02:23;;;;;;;18.70;9.10;;;22.80;99.90;;;;;;5031572;28;20022;-51
2022/12/17 14:04:53;;;;;;;15.88;8.38;;;22.80;99.90;;;;;;5031822;28;20031;-51
2022/12/17 14:07:20;;;;;;;16.65;8.27;;;22.80;99.90;;;;;;5031574;28;20021;-52
2022/12/17 14:09:47;;;;;;;13.80;7.90;;;22.70;99.90;;;;;;5013307;28;20022;-53
2022/12/17 14:12:21;;;;;;;13.10;8.10;;;22.80;99.90;;;;;;5031653;28;20079;-52
2022/12/17 14:14:54;;;;;;;16.75;8.32;;;22.80;99.90;;;;;;5016810;28;20026;-51
2022/12/17 14:17:23;;;;;;;16.45;8.38;;;22.80;99.90;;;;;;4999211;28;20026;-50
2022/12/17 14:19:57;;;;;;;16.88;8.20;;;22.80;99.90;;;;;;4994840;28;20062;-50
2022/12/17 14:22:32;;;;;;;14.48;7.93;;;22.80;99.90;;;;;;4991868;28;20061;-50
2022/12/17 14:24:58;;;;;;;16.45;9.02;;;22.90;99.90;;;;;;4991824;28;20049;-51
2022/12/17 14:27:32;;;;;;;14.48;8.10;;;22.90;99.90;;;;;;4991734;28;20030;-50
2022/12/17 14:29:58;;;;;;;13.50;8.07;;;22.90;99.90;;;;;;4993800;28;20018;-50
2022/12/17 14:32:33;;;;;;;17.30;8.43;;;23.00;99.90;;;;;;4991945;28;20429;-50
2022/12/17 14:34:59;;;;;;;15.52;8.57;;;23.00;99.90;;;;;;4991349;28;20076;-51
2022/12/17 14:37:26;;;;;;;20.70;8.45;;;23.00;99.90;;;;;;4991873;28;20472;-50
2022/12/17 14:40:02;;;;;;;15.60;8.25;;;23.00;99.90;;;;;;4991959;28;20023;-50
2022/12/17 14:42:28;;;;;;;15.38;9.65;;;23.00;99.90;;;;;;4993764;28;20014;-51
2022/12/17 14:44:56;;;;;;;28.27;8.75;;;23.00;99.90;;;;;;4995862;28;20026;-50
2022/12/17 14:47:33;;;;;;;13.65;7.57;;;23.10;99.90;;;;;;4995752;28;20423;-51
2022/12/17 14:50:08;;;;;;;14.55;7.75;;;23.10;99.90;;;;;;4995344;28;20019;-51
2022/12/17 14:52:43;;;;;;;13.75;7.85;;;23.00;99.90;;;;;;4999845;28;20117;-50
2022/12/17 14:55:26;;;;;;;14.73;8.00;;;23.00;99.90;;;;;;4978714;28;20026;-50
2022/12/17 14:58:05;;;;;;;17.60;6.20;;;23.00;99.90;;;;;;4996681;28;20122;-50
2022/12/17 15:00:31;;;;;;;13.63;7.57;;;23.10;99.90;;;;;;5015319;28;20092;-49
2022/12/17 15:02:57;;;;;;;12.13;7.05;;;23.10;99.90;;;;;;5011278;28;20034;-50
2022/12/17 15:05:23;;;;;;;11.80;7.38;;;23.00;99.90;;;;;;4994998;28;20080;-51
2022/12/17 15:07:50;;;;;;;13.63;7.50;;;23.10;99.90;;;;;;4995285;28;20058;-50
2022/12/17 15:10:19;;;;;;;16.55;7.38;;;23.00;99.90;;;;;;5002750;28;20094;-51
2022/12/17 15:12:46;;;;;;;9.88;6.75;;;23.00;99.90;;;;;;5015162;28;20084;-50
2022/12/17 15:15:14;;;;;;;20.88;7.78;;;23.10;99.90;;;;;;5007067;28;20026;-50
2022/12/17 15:17:40;;;;;;;14.07;6.72;;;23.10;99.90;;;;;;4999219;28;20080;-50
2022/12/17 15:20:11;;;;;;;11.30;6.97;;;23.10;99.90;;;;;;5009379;28;20053;-51
2022/12/17 15:22:37;;;;;;;13.02;7.15;;;23.10;99.90;;;;;;4995226;28;20053;-52
2022/12/17 15:25:04;;;;;;;12.20;7.07;;;23.10;99.90;;;;;;5006311;28;20076;-51
2022/12/17 15:27:29;;;;;;;10.73;6.75;;;23.10;99.90;;;;;;5014606;28;20018;-51
2022/12/17 15:29:55;;;;;;;12.90;7.00;;;23.10;99.90;;;;;;5003895;28;20037;-51
2022/12/17 15:32:22;;;;;;;10.07;6.43;;;23.10;99.90;;;;;;5014633;28;20014;-50
2022/12/17 15:34:49;;;;;;;13.60;6.35;;;23.20;99.90;;;;;;4994728;28;20030;-50
2022/12/17 15:37:16;;;;;;;14.57;7.38;;;23.20;99.90;;;;;;4977523;28;20023;-50
2022/12/17 15:39:42;;;;;;;13.32;7.18;;;23.20;99.90;;;;;;4995134;28;20049;-49
2022/12/17 15:44:53;;;;;;;10.65;6.60;;;23.20;99.90;;;;;;5011929;28;20021;-50
2022/12/17 15:47:19;;;;;;;10.40;6.53;;;23.20;99.90;;;;;;5014742;28;20034;-49
2022/12/17 15:49:45;;;;;;;12.65;6.85;;;23.20;99.90;;;;;;5014573;28;20037;-49
2022/12/17 15:52:13;;;;;;;11.00;6.35;;;23.20;99.90;;;;;;5007859;28;20037;-51
2022/12/17 15:54:41;;;;;;;13.35;6.20;;;23.20;99.90;;;;;;4993874;28;20037;-51
2022/12/17 15:57:07;;;;;;;;;;;23.20;99.90;;;;;;4994697;28;20183;-49
2022/12/17 15:59:32;;;;;;;8.68;6.03;;;23.20;99.90;;;;;;4994104;28;20019;-50
2022/12/17 16:01:58;;;;;;;10.65;6.30;;;23.20;99.90;;;;;;4994479;28;20446;-51
2022/12/17 16:04:24;;;;;;;9.95;6.10;;;23.20;99.90;;;;;;5012788;28;20014;-51
2022/12/17 16:06:50;;;;;;;11.25;6.18;;;23.20;99.90;;;;;;4996921;28;20033;-50
2022/12/17 16:09:16;;;;;;;9.20;5.70;;;23.20;99.90;;;;;;5014358;28;20472;-51
2022/12/17 16:11:42;;;;;;;12.30;6.20;;;23.30;99.90;;;;;;5014343;28;20052;-51
2022/12/17 16:14:07;;;;;;;11.05;6.25;;;23.20;99.90;;;;;;5006162;28;20496;-51
2022/12/17 16:16:33;;;;;;;12.18;6.13;;;23.30;99.90;;;;;;5003247;28;20033;-51
2022/12/17 16:19:00;;;;;;;8.68;6.28;;;23.20;99.90;;;;;;4996495;28;20117;-50
2022/12/17 16:21:27;;;;;;;11.68;6.40;;;23.20;99.90;;;;;;5013853;28;20021;-50
2022/12/17 16:23:52;;;;;;;9.00;5.40;;;23.30;99.90;;;;;;4994143;28;20030;-50
2022/12/17 16:26:18;;;;;;;8.95;6.10;;;23.20;99.90;;;;;;4993918;28;20029;-51
2022/12/17 16:28:44;;;;;;;10.32;6.10;;;23.20;99.90;;;;;;4993978;28;20019;-51
2022/12/17 16:31:12;;;;;;;9.65;5.30;;;23.20;99.90;;;;;;5008254;28;20487;-51
2022/12/17 16:33:41;;;;;;;11.10;5.63;;;23.20;99.90;;;;;;5013950;28;20073;-49
2022/12/17 16:36:11;;;;;;;8.18;5.57;;;23.30;99.90;;;;;;4996365;28;20026;-50
2022/12/17 16:38:46;;;;;;;8.77;5.70;;;23.30;99.90;;;;;;4994254;28;20031;-51
2022/12/17 16:41:12;;;;;;;8.73;5.97;;;23.20;99.90;;;;;;5011525;28;20018;-52
2022/12/17 16:43:38;;;;;;;9.57;5.97;;;23.20;99.90;;;;;;5013393;28;20447;-52
2022/12/17 16:46:05;;;;;;;10.98;5.78;;;23.20;99.90;;;;;;5000146;28;20022;-50
2022/12/17 16:48:37;;;;;;;9.27;6.30;;;23.20;99.90;;;;;;5013678;28;20419;-49
2022/12/17 16:51:15;;;;;;;9.45;5.78;;;23.20;99.90;;;;;;5013128;28;20540;-50
2022/12/17 16:53:41;;;;;;;9.73;5.80;;;23.20;99.90;;;;;;4968236;28;20512;-51
2022/12/17 16:56:07;;;;;;;10.55;6.40;;;23.20;99.90;;;;;;4993582;28;20026;-51
2022/12/17 16:58:33;;;;;;;10.95;6.40;;;23.20;99.90;;;;;;4993564;28;20439;-49
2022/12/17 17:00:59;;;;;;;15.80;6.20;;;23.20;99.90;;;;;;4998232;28;20042;-50
2022/12/17 17:03:26;;;;;;;8.63;6.13;;;23.20;99.90;;;;;;4994404;28;20405;-49
2022/12/17 17:05:58;;;;;;;9.77;5.63;;;23.20;99.90;;;;;;5009403;28;20096;-50
2022/12/17 17:08:24;;;;;;;12.63;6.80;;;23.20;99.90;;;;;;4993474;28;20026;-49
2022/12/17 17:10:49;;;;;;;9.00;6.07;;;23.20;99.90;;;;;;5000056;28;20026;-50
2022/12/17 17:13:15;;;;;;;9.55;6.88;;;23.20;99.90;;;;;;4992775;28;20039;-49
2022/12/17 17:15:41;;;;;;;9.40;6.45;;;23.20;99.90;;;;;;5001606;28;20121;-50
2022/12/17 17:18:07;;;;;;;9.98;6.05;;;23.20;99.90;;;;;;4996807;28;20029;-50
2022/12/17 17:20:33;;;;;;;11.05;6.43;;;23.20;99.90;;;;;;5012816;28;20084;-50
2022/12/17 17:22:59;;;;;;;8.75;6.57;;;23.20;99.90;;;;;;5002156;28;20100;-50
2022/12/17 17:25:24;;;;;;;9.65;6.18;;;23.20;99.90;;;;;;5005648;28;20104;-50
2022/12/17 17:27:50;;;;;;;8.48;5.82;;;23.20;99.90;;;;;;5016762;28;21126;-50
2022/12/17 17:30:16;;;;;;;11.02;6.55;;;23.20;99.90;;;;;;5014589;28;20030;-49
2022/12/17 17:32:42;;;;;;;13.25;7.10;;;23.20;99.90;;;;;;5032806;28;20443;-50
2022/12/17 17:35:08;;;;;;;8.98;6.20;;;23.20;99.90;;;;;;5032481;28;20029;-50
2022/12/17 17:37:34;;;;;;;11.13;6.53;;;23.20;99.90;;;;;;5032610;28;20032;-50
2022/12/17 17:39:59;;;;;;;10.27;6.25;;;23.20;99.90;;;;;;5032146;28;20033;-50
2022/12/17 17:42:25;;;;;;;11.85;7.28;;;23.20;99.90;;;;;;5032657;28;20030;-50
2022/12/17 17:44:51;;;;;;;11.35;6.85;;;23.20;99.90;;;;;;5032188;28;20017;-50
2022/12/17 17:47:17;;;;;;;13.65;7.38;;;23.20;99.90;;;;;;5013409;28;20075;-50
2022/12/17 17:49:43;;;;;;;10.75;6.80;;;23.20;99.90;;;;;;5031527;28;20088;-50
2022/12/17 17:52:08;;;;;;;13.55;6.63;;;23.20;99.90;;;;;;5032036;28;20034;-49
2022/12/17 17:54:34;;;;;;;10.75;6.47;;;23.20;99.90;;;;;;5031498;28;20064;-49
2022/12/17 17:57:00;;;;;;;12.05;6.30;;;23.20;99.90;;;;;;5030400;28;20118;-49
2022/12/17 17:59:26;;;;;;;11.50;7.47;;;23.20;99.90;;;;;;5010627;28;20129;-49
2022/12/17 18:01:51;;;;;;;11.82;6.10;;;23.20;99.90;;;;;;5029242;28;20052;-49
2022/12/17 18:04:23;;;;;;;12.77;7.55;;;23.20;99.90;;;;;;5014163;28;20026;-49
2022/12/17 18:06:49;;;;;;;11.73;6.72;;;23.20;99.90;;;;;;5031962;28;20464;-49
2022/12/17 18:09:15;;;;;;;11.40;6.57;;;23.20;99.90;;;;;;5031752;28;20112;-48
2022/12/17 18:11:41;;;;;;;11.25;7.07;;;23.20;99.90;;;;;;5031680;28;20558;-49
2022/12/17 18:14:10;;;;;;;10.85;6.90;;;23.20;99.90;;;;;;5032046;28;20033;-49
2022/12/17 18:16:42;;;;;;;11.82;7.05;;;23.20;99.90;;;;;;5031016;28;20379;-49
2022/12/17 18:19:21;;;;;;;12.95;6.80;;;23.20;99.90;;;;;;5032017;28;20029;-50
2022/12/17 18:21:47;;;;;;;13.45;7.00;;;23.20;99.90;;;;;;5031868;28;20460;-49
2022/12/17 18:24:16;;;;;;;15.63;7.35;;;23.10;99.90;;;;;;5028527;28;20033;-49
2022/12/17 18:26:43;;;;;;;16.33;7.95;;;23.10;99.90;;;;;;5031829;28;20029;-49
2022/12/17 18:29:15;;;;;;;10.05;7.20;;;23.10;99.90;;;;;;5031249;28;20446;-51
2022/12/17 18:31:41;;;;;;;13.10;7.38;;;23.10;99.90;;;;;;5032281;28;20399;-49
2022/12/17 18:34:09;;;;;;;12.98;7.43;;;23.10;99.90;;;;;;5025169;28;20049;-49
2022/12/17 18:36:40;;;;;;;13.38;7.43;;;23.10;99.90;;;;;;5011666;28;20064;-51
2022/12/17 18:39:17;;;;;;;12.23;6.97;;;23.10;99.90;;;;;;5012251;28;20034;-50
2022/12/17 18:44:30;;;;;;;10.57;7.13;;;23.00;99.90;;;;;;5011994;28;20065;-48
2022/12/17 18:46:56;;;;;;;;;;;23.10;99.90;;;;;;5011474;28;20020;-48
2022/12/17 18:49:22;;;;;;;12.00;7.40;;;23.00;99.90;;;;;;5012370;28;19912;-48
2022/12/17 18:51:49;;;;;;;14.65;7.70;;;23.00;99.90;;;;;;5012300;28;20033;-50
2022/12/17 18:54:24;;;;;;;18.42;8.88;;;23.00;99.90;;;;;;5009763;28;20030;-49
2022/12/17 18:56:51;;;;;;;18.55;7.97;;;23.00;99.90;;;;;;5012137;28;20037;-49
2022/12/17 18:59:20;;;;;;;13.02;7.53;;;23.00;99.90;;;;;;5008218;28;20025;-50
2022/12/17 19:01:47;;;;;;;16.20;8.25;;;23.00;99.90;;;;;;5004182;28;20050;-48
2022/12/17 19:04:14;;;;;;;;;;;23.00;99.90;;;;;;5010083;28;20030;-47
2022/12/17 19:06:42;;;;;;;18.30;7.28;;;22.90;99.90;;;;;;5007960;28;19913;-50
2022/12/17 19:09:16;;;;;;;12.05;7.10;;;22.90;99.90;;;;;;5009687;28;20066;-50
2022/12/17 19:11:42;;;;;;;13.55;7.75;;;22.90;99.90;;;;;;4999948;28;20023;-51
2022/12/17 19:14:07;;;;;;;11.02;7.25;;;22.90;99.90;;;;;;4999282;28;20026;-52
2022/12/17 19:16:33;;;;;;;9.95;6.25;;;22.90;99.90;;;;;;5005744;28;20045;-51
2022/12/17 19:19:02;;;;;;;12.63;7.00;;;22.90;99.90;;;;;;5002444;28;20102;-50
2022/12/17 19:21:29;;;;;;;14.20;7.10;;;22.90;99.90;;;;;;5009103;28;20105;-51
2022/12/17 19:23:58;;;;;;;10.45;6.95;;;22.90;99.90;;;;;;5005909;28;20018;-51
2022/12/17 19:26:25;;;;;;;11.50;7.28;;;22.90;99.90;;;;;;5009776;28;20040;-50
2022/12/17 19:28:52;;;;;;;12.00;7.40;;;22.90;99.90;;;;;;5010571;28;20030;-50
2022/12/17 19:31:19;;;;;;;;;;;22.90;99.90;;;;;;5011986;28;20026;-50
2022/12/17 19:33:45;;;;;;;11.93;7.17;;;22.90;99.90;;;;;;5011132;28;20394;-50
2022/12/17 19:36:17;;;;;;;11.85;6.13;;;22.90;99.90;;;;;;5011920;28;20026;-51
2022/12/17 19:38:43;;;;;;;14.90;7.10;;;22.90;99.90;;;;;;5012709;28;20065;-50
2022/12/17 19:41:15;;;;;;;10.32;6.20;;;22.90;99.90;;;;;;5013253;28;20022;-50
2022/12/17 19:43:46;;;;;;;10.27;6.22;;;22.80;99.90;;;;;;4997266;28;20606;-51
2022/12/17 19:46:15;;;;;;;9.25;5.90;;;22.90;99.90;;;;;;4995428;28;20038;-51
2022/12/17 19:48:42;;;;;;;12.98;6.97;;;22.90;99.90;;;;;;5002791;28;20096;-51
2022/12/17 19:51:10;;;;;;;14.05;6.25;;;22.80;99.90;;;;;;4999730;28;20129;-51
2022/12/17 19:53:36;;;;;;;;;;;22.80;99.90;;;;;;5011241;28;20045;-51
2022/12/17 19:56:18;;;;;;;9.90;5.95;;;22.80;99.90;;;;;;5012272;28;19916;-51
2022/12/17 19:58:46;;;;;;;10.23;6.18;;;22.80;99.90;;;;;;5010889;28;20068;-51
2022/12/17 20:01:13;;;;;;;;;;;22.80;99.90;;;;;;5009679;28;20058;-51
2022/12/17 20:03:41;;;;;;;9.23;5.38;;;22.80;99.90;;;;;;5012234;28;19905;-51
2022/12/17 20:06:09;;;;;;;9.60;5.95;;;22.80;99.90;;;;;;5012456;28;20118;-51
2022/12/17 20:08:35;;;;;;;9.95;5.82;;;22.70;99.90;;;;;;5006338;28;20035;-52
2022/12/17 20:11:31;;;;;;;11.85;6.25;;;22.80;99.90;;;;;;5005971;28;20041;-51
2022/12/17 20:13:55;;;;;;;11.77;6.30;;;22.70;99.90;;;;;;5009607;28;20133;-52
2022/12/17 20:16:21;;;;;;;9.10;6.03;;;22.70;99.90;;;;;;4995214;28;20033;-51
2022/12/17 20:18:47;;;;;;;9.10;5.55;;;22.70;99.90;;;;;;5010152;28;20022;-51
2022/12/17 20:21:13;;;;;;;10.27;5.13;;;22.70;99.90;;;;;;5012417;28;20522;-50
2022/12/17 20:23:38;;;;;;;7.95;5.30;;;22.70;99.90;;;;;;5005914;28;20019;-51
2022/12/17 20:26:07;;;;;;;7.68;5.53;;;22.70;99.90;;;;;;5003349;28;20022;-51
2022/12/17 20:28:34;;;;;;;9.75;5.60;;;22.70;99.90;;;;;;4989472;28;20025;-51
2022/12/17 20:31:02;;;;;;;8.05;5.53;;;22.70;99.90;;;;;;4993535;28;20104;-51
2022/12/17 20:33:27;;;;;;;9.48;5.85;;;22.70;99.90;;;;;;5008615;28;20018;-51
2022/12/17 20:35:54;;;;;;;9.00;5.18;;;22.60;99.90;;;;;;5008764;28;20044;-51
2022/12/17 20:38:20;;;;;;;8.50;5.30;;;22.60;99.90;;;;;;4996673;28;20572;-50
2022/12/17 20:40:46;;;;;;;9.02;5.60;;;22.60;99.90;;;;;;4994372;28;20471;-50
2022/12/17 20:43:12;;;;;;;6.82;5.18;;;22.60;99.90;;;;;;5010825;28;20058;-50
2022/12/17 20:45:38;;;;;;;8.45;5.65;;;22.60;99.90;;;;;;4994293;28;20105;-50
2022/12/17 20:48:04;;;;;;;9.35;5.78;;;22.60;99.90;;;;;;5009070;28;20396;-50
2022/12/17 20:50:29;;;;;;;8.90;4.72;;;22.60;99.90;;;;;;5008734;28;20025;-51
2022/12/17 20:52:55;;;;;;;8.10;4.95;;;22.60;99.90;;;;;;5005022;28;20029;-50
2022/12/17 20:55:21;;;;;;;8.95;5.20;;;22.60;99.90;;;;;;5008622;28;20435;-50
2022/12/17 20:57:47;;;;;;;10.10;5.22;;;22.60;99.90;;;;;;5005568;28;20022;-50
2022/12/17 21:00:13;;;;;;;7.00;4.68;;;22.60;99.90;;;;;;5006009;28;20165;-50
2022/12/17 21:02:38;;;;;;;7.25;4.57;;;22.50;99.90;;;;;;5009816;28;20448;-50
2022/12/17 21:05:05;;;;;;;12.10;4.63;;;22.50;99.90;;;;;;5011185;28;20064;-50
2022/12/17 21:07:31;;;;;;;7.07;4.50;;;22.50;99.90;;;;;;5011195;28;20065;-50
2022/12/17 21:09:56;;;;;;;10.13;4.68;;;22.50;99.90;;;;;;5011217;28;20061;-50
2022/12/17 21:13:27;;;;;;;10.77;4.30;;;22.50;99.90;;;;;;5009050;28;20332;-50
2022/12/17 21:15:08;;;;;;;8.95;4.65;;;22.50;99.90;;;;;;5010825;28;20065;-50
2022/12/17 21:17:34;;;;;;;7.13;4.22;;;22.50;99.90;;;;;;5011368;28;20051;-50
2022/12/17 21:20:00;;;;;;;8.23;4.72;;;22.50;99.90;;;;;;5005140;28;20026;-51
2022/12/17 21:22:25;;;;;;;8.10;4.78;;;22.50;99.90;;;;;;5011055;28;20030;-50
2022/12/17 21:24:51;;;;;;;7.70;4.40;;;22.40;99.90;;;;;;5008550;28;20376;-51
2022/12/17 21:27:17;;;;;;;6.78;4.32;;;22.40;99.90;;;;;;4995391;28;20384;-51
2022/12/17 21:29:43;;;;;;;8.98;4.78;;;22.40;99.90;;;;;;4994882;28;20485;-51
2022/12/17 21:32:08;;;;;;;7.38;4.18;;;22.40;99.90;;;;;;5006238;28;20350;-51
2022/12/17 21:34:34;;;;;;;7.65;5.13;;;22.40;99.90;;;;;;5003267;28;20365;-49
2022/12/17 21:37:00;;;;;;;10.45;5.05;;;22.40;99.90;;;;;;4994655;28;20366;-49
2022/12/17 21:39:26;;;;;;;6.03;3.90;;;22.40;99.90;;;;;;5002454;28;20038;-49
2022/12/17 21:44:36;;;;;;;7.60;4.25;;;22.40;99.90;;;;;;5011167;28;20089;-50
2022/12/17 21:47:02;;;;;;;6.80;4.15;;;22.30;99.90;;;;;;5010962;28;20468;-52
2022/12/17 21:49:28;;;;;;;4.93;4.22;;;22.30;99.90;;;;;;5007113;28;20048;-52
2022/12/17 21:51:53;;;;;;;7.38;4.30;;;22.30;99.90;;;;;;5008799;28;20025;-52
2022/12/17 21:54:19;;;;;;;8.00;4.32;;;22.30;99.90;;;;;;5008681;28;20052;-52
2022/12/17 21:56:45;;;;;;;6.80;3.83;;;22.30;99.90;;;;;;5010875;28;20411;-52
2022/12/17 21:59:11;;;;;;;6.47;3.97;;;22.30;99.90;;;;;;5006083;28;20555;-50
2022/12/17 22:01:37;;;;;;;8.00;4.65;;;22.30;99.90;;;;;;4994041;28;20488;-52
2022/12/17 22:04:03;;;;;;;6.30;3.47;;;22.20;99.90;;;;;;5004145;28;20088;-52
2022/12/17 22:06:32;;;;;;;6.88;3.85;;;22.20;99.90;;;;;;5007767;28;20025;-51
2022/12/17 22:08:59;;;;;;;5.55;3.78;;;22.20;99.90;;;;;;5010612;28;20069;-51
2022/12/17 22:11:26;;;;;;;8.43;3.85;;;22.20;99.90;;;;;;5009161;28;20030;-51
2022/12/17 22:14:01;;;;;;;5.18;3.38;;;22.20;99.90;;;;;;5008884;28;20384;-51
2022/12/17 22:16:40;;;;;;;5.88;3.45;;;22.20;99.90;;;;;;4992573;28;20084;-51
2022/12/17 22:19:11;;;;;;;6.60;3.97;;;22.20;99.90;;;;;;5007779;28;20022;-49
2022/12/17 22:21:39;;;;;;;6.85;3.45;;;22.20;99.90;;;;;;5008834;28;20391;-49
2022/12/17 22:24:06;;;;;;;6.50;3.95;;;22.10;99.90;;;;;;5009735;28;20030;-49
2022/12/17 22:26:35;;;;;;;5.45;3.55;;;22.10;99.90;;;;;;5006394;28;20033;-51
2022/12/17 22:29:02;;;;;;;6.05;3.45;;;22.10;99.90;;;;;;4980832;28;20031;-49
2022/12/17 22:34:13;;;;;;;8.05;3.58;;;22.10;99.90;;;;;;4996156;28;20507;-49
2022/12/17 22:36:39;;;;;;;9.00;3.67;;;22.10;99.90;;;;;;5002733;28;20105;-50
2022/12/17 22:39:11;;;;;;;8.40;3.58;;;22.10;99.90;;;;;;5004293;28;20488;-50
2022/12/17 22:44:24;;;;;;;5.50;3.15;;;22.00;99.90;;;;;;5008262;28;20032;-49
2022/12/17 22:46:50;;;;;;;6.65;4.13;;;22.00;99.90;;;;;;5009959;28;20033;-50
2022/12/17 22:49:17;;;;;;;6.60;3.47;;;22.00;99.90;;;;;;5010035;28;20116;-50
2022/12/17 22:51:43;;;;;;;5.05;3.28;;;22.00;99.90;;;;;;5006172;28;20034;-50
2022/12/17 22:54:10;;;;;;;7.20;3.17;;;22.00;99.90;;;;;;5001054;28;20041;-49
2022/12/17 22:56:38;;;;;;;9.25;3.58;;;22.00;99.90;;;;;;4997515;28;20464;-49
2022/12/17 22:59:04;;;;;;;6.35;3.67;;;22.00;99.90;;;;;;5012501;28;20030;-49
2022/12/17 23:01:30;;;;;;;6.72;3.17;;;22.00;99.90;;;;;;5011490;28;20038;-49
2022/12/17 23:03:58;;;;;;;6.50;3.25;;;22.00;99.90;;;;;;5014378;28;20376;-50
2022/12/17 23:06:24;;;;;;;;;;;21.90;99.90;;;;;;4998855;28;20018;-50
2022/12/17 23:08:50;;;;;;;5.88;2.65;;;21.90;99.90;;;;;;5015369;28;19909;-49
2022/12/17 23:11:22;;;;;;;4.93;3.20;;;21.90;99.90;;;;;;4997870;28;20491;-50
2022/12/17 23:13:48;;;;;;;4.55;3.00;;;21.90;99.90;;;;;;5015710;28;20041;-49
2022/12/17 23:16:15;;;;;;;5.10;3.22;;;21.90;99.90;;;;;;4997706;28;20140;-49
2022/12/17 23:18:42;;;;;;;5.35;2.78;;;21.90;99.90;;;;;;5015647;28;20425;-50
2022/12/17 23:21:13;;;;;;;6.15;2.80;;;21.90;99.90;;;;;;5002635;28;20044;-50
2022/12/17 23:23:39;;;;;;;6.05;3.25;;;21.90;99.90;;;;;;4999546;28;20022;-49
2022/12/17 23:26:10;;;;;;;6.75;2.60;;;21.90;99.90;;;;;;5016512;28;20106;-50
2022/12/17 23:28:37;;;;;;;8.48;3.00;;;21.90;99.90;;;;;;5015456;28;20112;-50
2022/12/17 23:31:10;;;;;;;6.43;2.95;;;21.80;99.90;;;;;;5015309;28;20076;-49
2022/12/17 23:33:37;;;;;;;6.22;3.20;;;21.80;99.90;;;;;;5002606;28;20470;-50
2022/12/17 23:36:08;;;;;;;5.18;2.95;;;21.90;99.90;;;;;;5015368;28;20026;-49
2022/12/17 23:38:34;;;;;;;5.38;3.10;;;21.80;99.90;;;;;;5014987;28;20026;-50
2022/12/17 23:41:18;;;;;;;7.20;2.92;;;21.80;99.90;;;;;;5015067;28;20480;-49
2022/12/17 23:43:45;;;;;;;4.07;2.70;;;21.80;99.90;;;;;;4997513;28;20029;-50
2022/12/17 23:46:11;;;;;;;6.25;2.72;;;21.80;99.90;;;;;;5014612;28;20026;-50
2022/12/17 23:48:42;;;;;;;3.10;2.38;;;21.80;99.90;;;;;;5015336;28;20096;-50
2022/12/17 23:51:09;;;;;;;5.82;3.08;;;21.80;99.90;;;;;;5015025;28;20060;-51
2022/12/17 23:53:36;;;;;;;;;;;21.80;99.90;;;;;;5013919;28;20030;-49
2022/12/17 23:56:17;;;;;;;7.75;3.67;;;21.80;99.90;;;;;;5000476;28;19944;-49
2022/12/17 23:58:44;;;;;;;5.03;2.55;;;21.80;99.90;;;;;;4997365;28;20427;-50
